createdAt,value
2023-05-09T00:01:30.329Z,10.12
2023-05-09T00:03:58.585Z,9.98
2023-05-09T00:06:25.737Z,9.88
2023-05-09T00:08:53.003Z,10.14
2023-05-09T00:11:21.066Z,10.34
2023-05-09T00:13:48.945Z,10.22
2023-05-09T00:16:17.185Z,10.18
2023-05-09T00:19:03.984Z,9.97
2023-05-09T00:21:50.459Z,10.03
2023-05-09T00:24:36.968Z,10.03
2023-05-09T00:27:23.442Z,10.12
2023-05-09T00:30:10.154Z,9.93
2023-05-09T00:32:56.677Z,9.97
2023-05-09T00:35:24.787Z,9.65
2023-05-09T00:37:51.912Z,10.01
2023-05-09T00:40:19.099Z,9.89
2023-05-09T00:42:46.263Z,10.09
2023-05-09T00:45:13.527Z,10.25
2023-05-09T00:47:40.916Z,10.00
2023-05-09T00:50:09.021Z,10.01
2023-05-09T00:52:36.411Z,10.04
2023-05-09T00:55:04.801Z,10.05
2023-05-09T00:57:31.970Z,9.90
2023-05-09T01:00:00.182Z,10.05
2023-05-09T01:02:27.777Z,10.11
2023-05-09T01:04:54.958Z,10.00
2023-05-09T01:07:33.227Z,10.15
2023-05-09T01:10:06.649Z,10.05
2023-05-09T01:13:04.475Z,10.27
2023-05-09T01:15:39.405Z,10.10
2023-05-09T01:18:21.470Z,9.93
2023-05-09T01:20:57.665Z,10.18
2023-05-09T01:23:49.328Z,10.24
2023-05-09T01:26:16.349Z,10.03
2023-05-09T01:28:43.456Z,10.09
2023-05-09T01:31:11.017Z,10.13
2023-05-09T01:33:40.265Z,10.25
2023-05-09T01:36:17.216Z,10.12
2023-05-09T01:38:45.237Z,9.96
2023-05-09T01:41:15.745Z,9.98
2023-05-09T01:43:45.421Z,10.13
2023-05-09T01:46:13.938Z,10.24
2023-05-09T01:48:42.585Z,9.98
2023-05-09T01:51:13.722Z,9.86
2023-05-09T01:53:42.153Z,9.98
2023-05-09T01:56:10.904Z,10.00
2023-05-09T01:58:39.221Z,10.01
2023-05-09T02:01:06.952Z,9.97
2023-05-09T02:03:36.061Z,10.15
2023-05-09T02:06:04.798Z,10.22
2023-05-09T02:08:32.759Z,10.05
2023-05-09T02:11:00.135Z,10.19
2023-05-09T02:13:27.700Z,10.30
2023-05-09T02:15:55.716Z,10.29
2023-05-09T02:18:22.832Z,10.20
2023-05-09T02:20:50.057Z,10.16
2023-05-09T02:23:17.388Z,10.26
2023-05-09T02:25:45.767Z,10.35
2023-05-09T02:28:13.952Z,10.21
2023-05-09T02:30:44.567Z,10.27
2023-05-09T02:33:13.468Z,10.27
2023-05-09T02:35:44.034Z,10.30
2023-05-09T02:38:12.214Z,10.25
2023-05-09T02:40:42.292Z,10.28
2023-05-09T02:43:10.250Z,10.25
2023-05-09T02:45:37.462Z,10.35
2023-05-09T02:48:07.622Z,10.38
2023-05-09T02:50:36.073Z,10.15
2023-05-09T02:53:03.234Z,10.14
2023-05-09T02:55:30.460Z,10.15
2023-05-09T02:58:09.695Z,10.34
2023-05-09T03:00:40.362Z,10.05
2023-05-09T03:03:07.841Z,10.11
2023-05-09T03:05:35.065Z,10.06
2023-05-09T03:08:02.129Z,10.17
2023-05-09T03:10:29.343Z,10.21
2023-05-09T03:12:56.706Z,10.22
2023-05-09T03:15:23.906Z,10.23
2023-05-09T03:17:51.211Z,10.36
2023-05-09T03:20:18.835Z,10.37
2023-05-09T03:22:45.965Z,10.27
2023-05-09T03:25:13.336Z,10.29
2023-05-09T03:27:42.780Z,10.31
2023-05-09T03:30:10.414Z,12.36
2023-05-09T03:32:37.675Z,12.74
2023-05-09T03:35:04.987Z,12.69
2023-05-09T03:37:35.085Z,12.85
2023-05-09T03:40:02.797Z,13.05
2023-05-09T03:42:46.145Z,13.04
2023-05-09T03:45:13.966Z,13.03
2023-05-09T03:47:41.921Z,12.98
2023-05-09T03:50:10.391Z,13.74
2023-05-09T03:52:38.170Z,13.60
2023-05-09T03:55:06.419Z,13.78
2023-05-09T03:57:35.325Z,13.29
2023-05-09T04:00:04.143Z,13.35
2023-05-09T04:02:33.595Z,12.92
2023-05-09T04:05:02.014Z,11.55
2023-05-09T04:07:32.144Z,11.09
2023-05-09T04:10:00.301Z,10.88
2023-05-09T04:12:27.814Z,10.76
2023-05-09T04:14:55.084Z,10.62
2023-05-09T04:17:22.205Z,10.48
2023-05-09T04:19:49.372Z,10.37
2023-05-09T04:22:16.683Z,10.47
2023-05-09T04:24:44.048Z,10.47
2023-05-09T04:27:11.162Z,10.57
2023-05-09T04:29:38.267Z,10.80
2023-05-09T04:32:05.472Z,10.78
2023-05-09T04:34:33.351Z,10.45
2023-05-09T04:37:00.899Z,10.54
2023-05-09T04:39:28.101Z,10.50
2023-05-09T04:41:55.229Z,10.33
2023-05-09T04:44:22.541Z,10.28
2023-05-09T04:46:49.703Z,10.31
2023-05-09T04:49:16.804Z,10.25
2023-05-09T04:51:43.892Z,10.19
2023-05-09T04:54:11.144Z,10.13
2023-05-09T04:56:38.286Z,10.14
2023-05-09T04:59:05.505Z,10.33
2023-05-09T05:01:32.991Z,10.33
2023-05-09T05:04:05.101Z,10.24
2023-05-09T05:06:38.698Z,10.35
2023-05-09T05:09:07.410Z,10.44
2023-05-09T05:11:34.938Z,10.13
2023-05-09T05:14:10.683Z,10.17
2023-05-09T05:16:38.436Z,10.34
2023-05-09T05:19:09.498Z,10.50
2023-05-09T05:21:47.571Z,10.26
2023-05-09T05:24:16.756Z,10.27
2023-05-09T05:26:44.339Z,10.40
2023-05-09T05:29:12.214Z,10.43
2023-05-09T05:31:47.220Z,10.19
2023-05-09T05:34:14.337Z,10.14
2023-05-09T05:36:41.427Z,9.92
2023-05-09T05:39:08.687Z,10.13
2023-05-09T05:41:35.872Z,10.27
2023-05-09T05:44:03.123Z,10.41
2023-05-09T05:46:30.418Z,10.45
2023-05-09T05:48:57.819Z,10.35
2023-05-09T05:51:25.324Z,10.46
2023-05-09T05:53:52.543Z,10.31
2023-05-09T05:56:19.803Z,10.30
2023-05-09T05:58:47.423Z,10.11
2023-05-09T06:01:14.597Z,10.19
2023-05-09T06:03:41.966Z,10.05
2023-05-09T06:06:09.198Z,10.23
2023-05-09T06:08:36.537Z,10.15
2023-05-09T06:11:03.686Z,9.83
2023-05-09T06:13:30.874Z,9.87
2023-05-09T06:16:07.816Z,9.93
2023-05-09T06:18:42.811Z,9.93
2023-05-09T06:21:09.928Z,10.17
2023-05-09T06:23:38.070Z,10.31
2023-05-09T06:26:07.866Z,10.18
2023-05-09T06:28:34.994Z,10.27
2023-05-09T06:31:02.234Z,10.14
2023-05-09T06:33:29.430Z,10.30
2023-05-09T06:35:56.615Z,10.08
2023-05-09T06:38:23.815Z,10.02
2023-05-09T06:40:54.153Z,10.03
2023-05-09T06:43:21.488Z,10.26
2023-05-09T06:45:48.719Z,10.36
2023-05-09T06:48:15.828Z,10.18
2023-05-09T06:50:42.974Z,10.35
2023-05-09T06:53:10.303Z,10.37
2023-05-09T06:55:37.504Z,10.37
2023-05-09T06:58:04.906Z,10.25
2023-05-09T07:00:32.171Z,10.02
2023-05-09T07:02:59.344Z,10.01
2023-05-09T07:05:26.811Z,10.03
2023-05-09T07:07:54.070Z,9.97
2023-05-09T07:10:22.095Z,10.13
2023-05-09T07:12:49.254Z,10.06
2023-05-09T07:15:25.705Z,9.91
2023-05-09T07:18:00.231Z,9.91
2023-05-09T07:20:27.408Z,10.06
2023-05-09T07:22:54.639Z,10.01
2023-05-09T07:25:21.920Z,10.20
2023-05-09T07:27:49.191Z,10.36
2023-05-09T07:30:16.685Z,10.35
2023-05-09T07:32:44.044Z,10.54
2023-05-09T07:35:11.227Z,10.46
2023-05-09T07:37:38.545Z,10.52
2023-05-09T07:40:06.901Z,10.29
2023-05-09T07:42:34.157Z,10.34
2023-05-09T07:45:01.381Z,10.36
2023-05-09T07:47:28.854Z,10.43
2023-05-09T07:49:56.271Z,10.43
2023-05-09T07:52:24.082Z,10.38
2023-05-09T07:54:51.261Z,10.52
2023-05-09T07:57:18.411Z,10.64
2023-05-09T07:59:45.544Z,10.72
2023-05-09T08:02:13.374Z,10.87
2023-05-09T08:04:40.577Z,10.80
2023-05-09T08:07:07.814Z,10.75
2023-05-09T08:09:35.356Z,10.42
2023-05-09T08:12:02.557Z,10.54
2023-05-09T08:14:29.699Z,10.71
2023-05-09T08:16:56.859Z,10.84
2023-05-09T08:19:23.987Z,10.85
2023-05-09T08:21:51.802Z,10.69
2023-05-09T08:24:18.957Z,10.69
2023-05-09T08:26:47.466Z,10.71
2023-05-09T08:29:14.685Z,10.82
2023-05-09T08:31:41.958Z,10.97
2023-05-09T08:34:09.135Z,11.07
2023-05-09T08:36:36.277Z,11.05
2023-05-09T08:39:03.595Z,11.15
2023-05-09T08:41:33.754Z,11.12
2023-05-09T08:44:01.152Z,11.13
2023-05-09T08:46:32.891Z,11.21
2023-05-09T08:49:00.925Z,11.29
2023-05-09T08:51:30.134Z,11.47
2023-05-09T08:53:57.486Z,11.48
2023-05-09T08:56:24.945Z,11.49
2023-05-09T08:58:55.237Z,11.45
2023-05-09T09:01:23.494Z,11.36
2023-05-09T09:03:51.957Z,11.46
2023-05-09T09:06:19.624Z,11.63
2023-05-09T09:08:47.891Z,11.60
2023-05-09T09:11:17.077Z,11.77
2023-05-09T09:13:46.506Z,11.78
2023-05-09T09:16:24.158Z,11.85
2023-05-09T09:18:52.526Z,11.95
2023-05-09T09:21:20.129Z,12.07
2023-05-09T09:23:49.283Z,12.06
2023-05-09T09:26:16.671Z,12.20
2023-05-09T09:28:44.415Z,12.18
2023-05-09T09:31:31.801Z,12.52
2023-05-09T09:34:01.607Z,12.65
2023-05-09T09:36:31.582Z,12.65
2023-05-09T09:39:00.373Z,12.63
2023-05-09T09:41:35.587Z,12.67
2023-05-09T09:44:20.084Z,12.69
2023-05-09T09:46:53.275Z,12.73
2023-05-09T09:49:26.070Z,12.73
2023-05-09T09:51:58.702Z,12.75
2023-05-09T09:54:27.254Z,12.87
2023-05-09T09:56:55.107Z,14.13
2023-05-09T09:59:24.335Z,15.27
2023-05-09T10:02:07.873Z,16.10
2023-05-09T10:04:37.536Z,15.26
2023-05-09T10:07:07.187Z,14.54
2023-05-09T10:09:35.866Z,14.19
2023-05-09T10:12:08.446Z,13.76
2023-05-09T10:14:38.300Z,14.21
2023-05-09T10:17:06.106Z,14.17
2023-05-09T10:19:37.305Z,14.09
2023-05-09T10:22:11.941Z,14.02
2023-05-09T10:24:51.257Z,13.78
2023-05-09T10:27:22.998Z,13.35
2023-05-09T10:29:57.377Z,13.13
2023-05-09T10:32:32.660Z,13.10
2023-05-09T10:35:05.698Z,13.00
2023-05-09T10:37:33.630Z,12.95
2023-05-09T10:40:03.938Z,12.91
2023-05-09T10:42:31.691Z,13.59
2023-05-09T10:44:59.076Z,14.51
2023-05-09T10:47:27.405Z,14.92
2023-05-09T10:49:58.470Z,14.75
2023-05-09T10:52:31.197Z,14.92
2023-05-09T10:55:03.672Z,14.73
2023-05-09T10:57:32.190Z,14.81
2023-05-09T10:59:59.859Z,14.79
2023-05-09T11:02:27.474Z,15.08
2023-05-09T11:05:15.229Z,14.95
2023-05-09T11:07:43.124Z,15.08
2023-05-09T11:10:17.467Z,15.01
2023-05-09T11:12:59.011Z,15.15
2023-05-09T11:15:27.061Z,15.13
2023-05-09T11:18:08.358Z,14.92
2023-05-09T11:20:36.595Z,15.42
2023-05-09T11:23:05.004Z,15.04
2023-05-09T11:25:32.424Z,15.46
2023-05-09T11:28:03.165Z,15.12
2023-05-09T11:30:42.891Z,14.36
2023-05-09T11:33:24.966Z,13.87
2023-05-09T11:36:18.191Z,13.91
2023-05-09T11:38:47.355Z,13.74
2023-05-09T11:41:18.493Z,13.64
2023-05-09T11:43:45.975Z,13.57
2023-05-09T11:46:13.516Z,13.63
2023-05-09T11:48:44.442Z,13.58
2023-05-09T11:51:19.327Z,13.55
2023-05-09T11:53:50.925Z,13.53
2023-05-09T11:56:18.397Z,13.66
2023-05-09T11:58:52.914Z,13.41
2023-05-09T12:01:23.619Z,13.38
2023-05-09T12:03:53.637Z,13.34
2023-05-09T12:06:24.163Z,13.34
2023-05-09T12:08:55.698Z,13.35
2023-05-09T12:11:24.357Z,13.46
2023-05-09T12:13:56.600Z,13.54
2023-05-09T12:16:24.043Z,13.68
2023-05-09T12:18:52.802Z,13.72
2023-05-09T12:21:23.044Z,13.57
2023-05-09T12:23:53.103Z,13.83
2023-05-09T12:26:22.048Z,13.80
2023-05-09T12:28:53.035Z,13.93
2023-05-09T12:31:20.736Z,14.07
2023-05-09T12:33:52.065Z,14.11
2023-05-09T12:36:19.440Z,14.02
2023-05-09T12:38:56.252Z,14.06
2023-05-09T12:43:57.961Z,14.21
2023-05-09T12:46:25.359Z,14.22
2023-05-09T12:48:52.836Z,14.35
2023-05-09T12:51:21.447Z,14.33
2023-05-09T12:53:49.638Z,14.23
2023-05-09T12:56:19.137Z,13.98
2023-05-09T12:58:55.834Z,13.96
2023-05-09T13:01:28.236Z,13.93
2023-05-09T13:04:06.490Z,13.91
2023-05-09T13:06:34.589Z,13.81
2023-05-09T13:09:04.234Z,14.04
2023-05-09T13:11:31.806Z,13.96
2023-05-09T13:14:00.145Z,13.98
2023-05-09T13:16:27.603Z,13.84
2023-05-09T13:18:54.970Z,13.78
2023-05-09T13:21:22.457Z,13.80
2023-05-09T13:23:50.158Z,13.80
2023-05-09T13:26:18.177Z,13.71
2023-05-09T13:28:45.532Z,13.61
2023-05-09T13:31:12.917Z,13.59
2023-05-09T13:33:40.289Z,13.53
2023-05-09T13:36:07.862Z,13.53
2023-05-09T13:38:36.817Z,13.60
2023-05-09T13:41:04.584Z,13.62
2023-05-09T13:43:31.892Z,13.65
2023-05-09T13:45:59.138Z,13.66
2023-05-09T13:48:26.641Z,13.70
2023-05-09T13:50:54.120Z,13.70
2023-05-09T13:53:21.800Z,13.70
2023-05-09T13:55:49.271Z,13.75
2023-05-09T13:58:16.791Z,13.79
2023-05-09T14:00:44.088Z,13.85
2023-05-09T14:03:12.736Z,13.78
2023-05-09T14:05:41.145Z,14.49
2023-05-09T14:08:08.644Z,14.67
2023-05-09T14:10:35.974Z,14.33
2023-05-09T14:13:03.376Z,14.16
2023-05-09T14:15:30.707Z,14.18
2023-05-09T14:17:58.090Z,14.12
2023-05-09T14:20:25.676Z,13.88
2023-05-09T14:22:52.916Z,13.79
2023-05-09T14:25:21.102Z,13.81
2023-05-09T14:27:51.536Z,13.77
2023-05-09T14:30:19.201Z,13.82
2023-05-09T14:32:46.518Z,13.78
2023-05-09T14:35:13.947Z,13.88
2023-05-09T14:37:41.240Z,13.76
2023-05-09T14:40:09.965Z,13.78
2023-05-09T14:42:37.272Z,13.76
2023-05-09T14:45:05.688Z,13.64
2023-05-09T14:47:32.987Z,13.72
2023-05-09T14:50:00.320Z,13.74
2023-05-09T14:52:27.681Z,13.71
2023-05-09T14:54:55.458Z,13.66
2023-05-09T14:57:22.798Z,13.70
2023-05-09T14:59:50.084Z,13.58
2023-05-09T15:02:18.073Z,13.53
2023-05-09T15:04:45.536Z,13.49
2023-05-09T15:07:12.884Z,13.55
2023-05-09T15:09:40.278Z,13.55
2023-05-09T15:12:09.008Z,13.46
2023-05-09T15:14:36.405Z,13.46
2023-05-09T15:17:03.927Z,13.39
2023-05-09T15:19:31.738Z,13.42
2023-05-09T15:22:00.002Z,13.37
2023-05-09T15:24:27.380Z,13.35
2023-05-09T15:26:54.759Z,13.34
2023-05-09T15:29:22.158Z,13.85
2023-05-09T15:31:49.438Z,13.66
2023-05-09T15:34:16.750Z,13.45
2023-05-09T15:36:44.169Z,13.44
2023-05-09T15:39:11.659Z,13.35
2023-05-09T15:41:39.009Z,13.36
2023-05-09T15:44:06.358Z,13.34
2023-05-09T15:46:33.984Z,13.27
2023-05-09T15:49:01.484Z,13.27
2023-05-09T15:51:28.804Z,13.25
2023-05-09T15:53:56.110Z,13.29
2023-05-09T15:56:23.466Z,13.25
2023-05-09T15:58:51.466Z,13.28
2023-05-09T16:01:18.870Z,13.33
2023-05-09T16:03:46.401Z,13.33
2023-05-09T16:06:15.915Z,13.28
2023-05-09T16:08:44.207Z,13.32
2023-05-09T16:11:11.616Z,13.32
2023-05-09T16:13:39.062Z,13.33
2023-05-09T16:16:06.721Z,13.36
2023-05-09T16:18:34.330Z,13.24
2023-05-09T16:21:01.658Z,13.28
2023-05-09T16:23:29.161Z,13.24
2023-05-09T16:25:56.437Z,13.27
2023-05-09T16:28:24.072Z,13.27
2023-05-09T16:30:51.676Z,13.27
2023-05-09T16:33:19.066Z,13.16
2023-05-09T16:35:46.915Z,13.26
2023-05-09T16:38:14.541Z,13.31
2023-05-09T16:40:41.893Z,13.21
2023-05-09T16:43:12.510Z,13.19
2023-05-09T16:45:39.851Z,13.21
2023-05-09T16:48:07.401Z,13.15
2023-05-09T16:50:34.776Z,13.12
2023-05-09T16:53:02.097Z,13.20
2023-05-09T16:55:29.366Z,13.27
2023-05-09T16:57:56.722Z,13.26
2023-05-09T17:00:24.281Z,13.21
2023-05-09T17:02:51.703Z,13.29
2023-05-09T17:05:19.509Z,13.28
2023-05-09T17:07:46.842Z,13.30
2023-05-09T17:10:14.534Z,13.22
2023-05-09T17:12:42.003Z,13.25
2023-05-09T17:15:09.968Z,13.22
2023-05-09T17:17:37.967Z,13.18
2023-05-09T17:20:05.914Z,13.19
2023-05-09T17:22:33.940Z,13.12
2023-05-09T17:25:01.977Z,13.13
2023-05-09T17:27:29.146Z,13.02
2023-05-09T17:29:56.387Z,13.01
2023-05-09T17:32:23.702Z,13.10
2023-05-09T17:34:51.023Z,13.10
2023-05-09T17:37:18.245Z,13.10
2023-05-09T17:39:45.530Z,13.09
2023-05-09T17:42:13.067Z,13.09
2023-05-09T17:44:41.410Z,13.17
2023-05-09T17:47:09.935Z,13.08
2023-05-09T17:49:37.109Z,13.10
2023-05-09T17:52:04.344Z,13.11
2023-05-09T17:54:31.785Z,13.10
2023-05-09T17:56:59.154Z,13.07
2023-05-09T17:59:26.670Z,12.99
2023-05-09T18:01:54.213Z,13.00
2023-05-09T18:04:24.212Z,12.96
2023-05-09T18:06:51.662Z,12.97
2023-05-09T18:09:18.845Z,13.00
2023-05-09T18:11:46.034Z,12.93
2023-05-09T18:14:13.195Z,12.95
2023-05-09T18:16:40.394Z,12.91
2023-05-09T18:19:07.709Z,12.97
2023-05-09T18:21:35.017Z,12.84
2023-05-09T18:24:02.549Z,12.84
2023-05-09T18:26:29.810Z,12.89
2023-05-09T18:28:57.814Z,12.89
2023-05-09T18:31:25.143Z,12.78
2023-05-09T18:33:52.400Z,12.86
2023-05-09T18:36:20.352Z,12.80
2023-05-09T18:38:47.708Z,12.92
2023-05-09T18:41:15.236Z,12.88
2023-05-09T18:43:43.262Z,12.90
2023-05-09T18:46:10.423Z,12.91
2023-05-09T18:48:37.563Z,12.88
2023-05-09T18:51:04.874Z,12.89
2023-05-09T18:53:32.171Z,12.83
2023-05-09T18:55:59.551Z,12.85
2023-05-09T18:58:26.760Z,12.87
2023-05-09T19:00:54.367Z,12.85
2023-05-09T19:03:22.051Z,12.85
2023-05-09T19:05:49.182Z,12.88
2023-05-09T19:08:16.405Z,12.88
2023-05-09T19:10:43.588Z,12.80
2023-05-09T19:13:12.900Z,12.74
2023-05-09T19:15:42.052Z,12.79
2023-05-09T19:18:09.232Z,12.80
2023-05-09T19:20:36.558Z,12.83
2023-05-09T19:23:03.974Z,12.80
2023-05-09T19:25:31.137Z,12.76
2023-05-09T19:27:58.574Z,13.09
2023-05-09T19:30:25.775Z,14.18
2023-05-09T19:32:53.378Z,14.57
2023-05-09T19:35:20.967Z,14.54
2023-05-09T19:37:48.274Z,15.00
2023-05-09T19:40:16.338Z,14.77
2023-05-09T19:42:44.082Z,14.82
2023-05-09T19:45:12.034Z,13.92
2023-05-09T19:47:39.413Z,13.48
2023-05-09T19:50:07.259Z,13.25
2023-05-09T19:52:34.484Z,13.04
2023-05-09T19:55:01.674Z,12.80
2023-05-09T19:57:28.869Z,12.78
2023-05-09T19:59:57.889Z,12.80
2023-05-09T20:02:25.174Z,12.72
2023-05-09T20:04:52.580Z,12.60
2023-05-09T20:07:20.098Z,12.59
2023-05-09T20:09:47.308Z,12.63
2023-05-09T20:12:14.368Z,12.59
2023-05-09T20:14:41.873Z,12.43
2023-05-09T20:17:09.255Z,12.46
2023-05-09T20:19:36.978Z,12.60
2023-05-09T20:22:04.263Z,12.44
2023-05-09T20:24:31.401Z,12.31
2023-05-09T20:26:58.654Z,12.11
2023-05-09T20:29:25.995Z,12.26
2023-05-09T20:31:53.200Z,12.19
2023-05-09T20:34:20.623Z,12.24
2023-05-09T20:36:48.839Z,12.00
2023-05-09T20:39:16.082Z,12.20
2023-05-09T20:41:48.325Z,11.95
2023-05-09T20:44:16.256Z,11.91
2023-05-09T20:46:44.509Z,11.91
2023-05-09T20:49:11.658Z,11.93
2023-05-09T20:51:39.406Z,11.90
2023-05-09T20:54:06.814Z,11.79
2023-05-09T20:56:34.308Z,11.61
2023-05-09T20:59:02.459Z,11.83
2023-05-09T21:01:32.682Z,11.87
2023-05-09T21:04:00.106Z,11.67
2023-05-09T21:06:27.212Z,11.48
2023-05-09T21:08:54.357Z,11.71
2023-05-09T21:11:21.435Z,11.40
2023-05-09T21:13:48.714Z,11.35
2023-05-09T21:16:15.786Z,11.25
2023-05-09T21:18:43.219Z,11.27
2023-05-09T21:21:10.403Z,11.12
2023-05-09T21:23:37.446Z,11.20
2023-05-09T21:26:05.424Z,11.07
2023-05-09T21:28:32.533Z,11.21
2023-05-09T21:30:59.856Z,11.20
2023-05-09T21:33:27.828Z,10.96
2023-05-09T21:35:55.072Z,10.94
2023-05-09T21:38:22.332Z,10.95
2023-05-09T21:40:50.685Z,10.82
2023-05-09T21:43:17.870Z,10.85
2023-05-09T21:45:45.631Z,10.84
2023-05-09T21:48:13.926Z,11.01
2023-05-09T21:50:44.100Z,10.83
2023-05-09T21:53:11.351Z,10.71
2023-05-09T21:55:38.607Z,10.75
2023-05-09T21:58:05.820Z,10.86
2023-05-09T22:00:33.069Z,10.66
2023-05-09T22:03:00.418Z,10.64
2023-05-09T22:05:27.542Z,10.42
2023-05-09T22:07:54.657Z,10.44
2023-05-09T22:10:22.532Z,10.49
2023-05-09T22:12:49.813Z,10.52
2023-05-09T22:15:17.143Z,10.39
2023-05-09T22:17:44.386Z,10.45
2023-05-09T22:20:12.351Z,10.49
2023-05-09T22:22:39.497Z,10.56
2023-05-09T22:25:06.927Z,10.47
2023-05-09T22:27:34.050Z,10.54
2023-05-09T22:30:01.245Z,10.52
2023-05-09T22:32:28.560Z,10.50
2023-05-09T22:34:55.682Z,10.41
2023-05-09T22:37:22.864Z,10.28
2023-05-09T22:39:50.227Z,10.42
2023-05-09T22:42:17.352Z,10.29
2023-05-09T22:44:44.495Z,10.33
2023-05-09T22:47:11.677Z,10.26
2023-05-09T22:49:38.812Z,10.24
2023-05-09T22:52:06.049Z,10.24
2023-05-09T22:54:33.801Z,10.12
2023-05-09T22:57:00.943Z,9.85
2023-05-09T22:59:28.070Z,10.14
2023-05-09T23:01:55.307Z,10.03
2023-05-09T23:04:22.516Z,9.99
2023-05-09T23:06:49.614Z,9.99
2023-05-09T23:09:16.727Z,10.09
2023-05-09T23:11:43.961Z,10.16
2023-05-09T23:14:11.249Z,10.06
2023-05-09T23:16:38.348Z,9.99
2023-05-09T23:19:05.535Z,10.04
2023-05-09T23:21:32.755Z,9.93
2023-05-09T23:23:59.909Z,9.94
2023-05-09T23:26:27.240Z,9.79
2023-05-09T23:28:54.335Z,9.98
2023-05-09T23:31:21.764Z,9.83
2023-05-09T23:33:48.978Z,9.77
2023-05-09T23:36:16.079Z,9.82
2023-05-09T23:38:43.299Z,9.80
2023-05-09T23:41:10.446Z,9.75
2023-05-09T23:43:37.802Z,9.77
2023-05-09T23:46:05.083Z,9.65
2023-05-09T23:48:32.557Z,9.72
2023-05-09T23:50:59.722Z,9.89
2023-05-09T23:53:26.879Z,9.93
2023-05-09T23:55:54.309Z,9.79
2023-05-09T23:58:21.561Z,9.87
